Terminal Aerodrome Forecast
Issued by NWS

Home | Current Version | Previous Version | Graphics & Text | Print | Product List | Glossary Off
Versions: 1 2 3 4 5 6 7 8 9 10 11 12 13 14 15 16 17 18 19 20

000
FTUS43 KFGF 261137
TAFBJI
TAF
KBJI 261137Z 2612/2712 03014KT 4SM -SN OVC012
      TEMPO 2612/2616 2SM -SN OVC008
     FM261600 03014KT 2SM -SN OVC008
     FM270200 02010KT P6SM OVC010
     FM270400 02010KT P6SM OVC008
     FM270700 02010KT P6SM OVC010=

USA.gov is the U.S. government's official web portal to all federal, state and local government web resources and services.